createdAt,value
2023-02-27T00:01:00.486Z,-0.26
2023-02-27T00:03:27.231Z,-0.28
2023-02-27T00:05:53.579Z,-0.32
2023-02-27T00:08:19.915Z,-0.28
2023-02-27T00:10:46.236Z,-0.31
2023-02-27T00:13:12.712Z,-0.38
2023-02-27T00:15:40.407Z,-0.38
2023-02-27T00:18:06.773Z,-0.38
2023-02-27T00:20:33.368Z,-0.42
2023-02-27T00:22:59.657Z,-0.46
2023-02-27T00:25:25.950Z,-0.39
2023-02-27T00:27:52.309Z,-0.40
2023-02-27T00:30:18.729Z,-0.41
2023-02-27T00:32:46.382Z,-0.46
2023-02-27T00:35:12.698Z,-0.44
2023-02-27T00:37:39.049Z,-0.51
2023-02-27T00:40:06.001Z,-0.54
2023-02-27T00:42:32.323Z,-0.52
2023-02-27T00:44:58.643Z,-0.51
2023-02-27T00:47:24.988Z,-0.46
2023-02-27T00:49:52.613Z,-0.44
2023-02-27T00:52:18.955Z,-0.45
2023-02-27T00:54:45.234Z,-0.47
2023-02-27T00:57:11.787Z,-0.57
2023-02-27T00:59:38.113Z,-0.56
2023-02-27T01:02:04.445Z,-0.60
2023-02-27T01:04:30.828Z,-0.64
2023-02-27T01:06:58.516Z,-0.66
2023-02-27T01:09:24.869Z,-0.68
2023-02-27T01:11:51.186Z,-0.72
2023-02-27T01:14:17.563Z,-0.75
2023-02-27T01:16:43.889Z,-0.77
2023-02-27T01:19:10.242Z,-0.75
2023-02-27T01:21:36.607Z,-0.75
2023-02-27T01:24:04.503Z,-0.69
2023-02-27T01:26:30.823Z,-0.78
2023-02-27T01:28:57.092Z,-0.85
2023-02-27T01:31:23.533Z,-0.85
2023-02-27T01:33:49.992Z,-0.84
2023-02-27T01:36:16.460Z,-0.85
2023-02-27T01:38:42.787Z,-0.89
2023-02-27T01:41:10.512Z,-0.92
2023-02-27T01:43:51.742Z,-0.90
2023-02-27T01:46:18.057Z,-0.88
2023-02-27T01:48:44.349Z,-0.89
2023-02-27T01:51:12.199Z,-0.91
2023-02-27T01:53:39.978Z,-0.90
2023-02-27T01:56:09.490Z,-0.90
2023-02-27T01:58:37.553Z,-0.92
2023-02-27T02:01:04.013Z,-0.95
2023-02-27T02:03:33.049Z,-0.97
2023-02-27T02:06:01.575Z,-1.02
2023-02-27T02:08:28.933Z,-1.06
2023-02-27T02:10:56.662Z,-1.11
2023-02-27T02:13:22.983Z,-1.12
2023-02-27T02:15:57.562Z,-1.16
2023-02-27T02:18:29.035Z,-1.19
2023-02-27T02:21:09.669Z,-1.17
2023-02-27T02:23:53.986Z,-1.18
2023-02-27T02:26:40.585Z,-1.17
2023-02-27T02:29:20.757Z,-1.13
2023-02-27T02:31:59.562Z,-1.11
2023-02-27T02:34:50.261Z,-1.09
2023-02-27T02:37:34.239Z,-1.11
2023-02-27T02:40:09.213Z,-1.10
2023-02-27T02:42:38.773Z,-1.14
2023-02-27T02:45:10.607Z,-1.16
2023-02-27T02:47:44.028Z,-1.20
2023-02-27T02:50:12.390Z,-1.21
2023-02-27T02:52:43.985Z,-1.22
2023-02-27T02:55:14.092Z,-1.26
2023-02-27T02:57:43.745Z,-1.27
2023-02-27T03:00:13.549Z,-1.29
2023-02-27T03:02:43.627Z,-1.29
2023-02-27T03:05:14.351Z,-1.32
2023-02-27T03:07:43.057Z,-1.31
2023-02-27T03:10:11.585Z,-1.33
2023-02-27T03:12:41.096Z,-1.32
2023-02-27T03:15:12.029Z,-1.36
2023-02-27T03:17:40.846Z,-1.40
2023-02-27T03:20:08.747Z,-1.44
2023-02-27T03:22:36.683Z,-1.44
2023-02-27T03:25:05.608Z,-1.48
2023-02-27T03:27:33.597Z,-1.50
2023-02-27T03:30:04.149Z,-1.49
2023-02-27T03:32:33.062Z,-1.48
2023-02-27T03:34:59.871Z,-1.50
2023-02-27T03:37:30.321Z,-1.49
2023-02-27T03:40:00.434Z,-1.51
2023-02-27T03:42:31.902Z,-1.55
2023-02-27T03:45:01.792Z,-1.57
2023-02-27T03:47:29.766Z,-1.56
2023-02-27T03:49:56.303Z,-1.53
2023-02-27T03:52:23.974Z,-1.53
2023-02-27T03:54:53.867Z,-1.47
2023-02-27T03:57:20.273Z,-1.44
2023-02-27T03:59:46.582Z,-1.42
2023-02-27T04:02:12.896Z,-1.44
2023-02-27T04:04:40.531Z,-1.50
2023-02-27T04:07:10.355Z,-1.55
2023-02-27T04:09:43.122Z,-1.55
2023-02-27T04:12:19.234Z,-1.56
2023-02-27T04:14:56.228Z,-1.56
2023-02-27T04:17:24.233Z,-1.55
2023-02-27T04:20:11.627Z,-1.58
2023-02-27T04:22:39.008Z,-1.61
2023-02-27T04:25:13.128Z,-1.61
2023-02-27T04:27:40.992Z,-1.60
2023-02-27T04:30:15.131Z,-1.61
2023-02-27T04:32:45.019Z,-1.59
2023-02-27T04:35:15.006Z,-1.63
2023-02-27T04:37:44.369Z,-1.65
2023-02-27T04:40:12.300Z,-1.59
2023-02-27T04:42:40.271Z,-1.64
2023-02-27T04:45:08.637Z,-1.64
2023-02-27T04:47:37.302Z,-1.69
2023-02-27T04:50:07.367Z,-1.70
2023-02-27T04:52:37.838Z,-1.72
2023-02-27T04:55:09.533Z,-1.73
2023-02-27T04:57:37.725Z,-1.74
2023-02-27T05:00:06.071Z,-1.77
2023-02-27T05:02:35.444Z,-1.74
2023-02-27T05:05:04.043Z,-1.74
2023-02-27T05:07:31.382Z,-1.74
2023-02-27T05:10:00.855Z,-1.75
2023-02-27T05:12:32.470Z,-1.74
2023-02-27T05:15:01.775Z,-1.74
2023-02-27T05:17:30.354Z,-1.76
2023-02-27T05:19:56.802Z,-1.79
2023-02-27T05:22:27.882Z,-1.82
2023-02-27T05:24:58.227Z,-1.82
2023-02-27T05:27:29.792Z,-1.84
2023-02-27T05:29:59.052Z,-1.86
2023-02-27T05:32:30.555Z,-1.88
2023-02-27T05:35:00.357Z,-1.91
2023-02-27T05:37:29.493Z,-1.94
2023-02-27T05:39:55.904Z,-1.92
2023-02-27T05:42:24.490Z,-1.90
2023-02-27T05:44:55.434Z,-1.90
2023-02-27T05:47:23.502Z,-1.91
2023-02-27T05:49:52.448Z,-1.92
2023-02-27T05:52:21.763Z,-1.92
2023-02-27T05:54:51.216Z,-1.95
2023-02-27T05:57:22.645Z,-1.97
2023-02-27T05:59:51.882Z,-1.98
2023-02-27T06:02:19.645Z,-1.98
2023-02-27T06:04:46.090Z,-2.00
2023-02-27T06:07:12.856Z,-2.00
2023-02-27T06:09:39.253Z,-1.99
2023-02-27T06:12:05.662Z,-2.01
2023-02-27T06:14:31.984Z,-2.06
2023-02-27T06:16:58.359Z,-2.06
2023-02-27T06:19:26.083Z,-2.06
2023-02-27T06:21:52.414Z,-2.05
2023-02-27T06:24:19.381Z,-2.05
2023-02-27T06:26:46.723Z,-2.01
2023-02-27T06:29:13.033Z,-2.02
2023-02-27T06:31:39.353Z,-2.01
2023-02-27T06:34:05.665Z,-2.03
2023-02-27T06:36:33.345Z,-2.06
2023-02-27T06:38:59.667Z,-2.06
2023-02-27T06:41:26.009Z,-2.06
2023-02-27T06:43:52.371Z,-2.02
2023-02-27T06:46:18.779Z,-1.99
2023-02-27T06:48:45.118Z,-1.99
2023-02-27T06:51:11.431Z,-1.91
2023-02-27T06:53:39.104Z,-1.93
2023-02-27T06:56:05.977Z,-1.91
2023-02-27T06:58:32.297Z,-1.86
2023-02-27T07:00:58.716Z,-1.85
2023-02-27T07:03:25.044Z,-1.83
2023-02-27T07:05:51.365Z,-1.81
2023-02-27T07:08:17.697Z,-1.78
2023-02-27T07:10:45.618Z,-1.74
2023-02-27T07:13:12.567Z,-1.68
2023-02-27T07:15:39.558Z,-1.60
2023-02-27T07:18:06.097Z,-1.56
2023-02-27T07:20:32.376Z,-1.48
2023-02-27T07:22:58.703Z,-1.48
2023-02-27T07:25:25.039Z,-1.43
2023-02-27T07:27:52.724Z,-1.38
2023-02-27T07:30:19.045Z,-1.35
2023-02-27T07:32:45.624Z,-1.27
2023-02-27T07:35:11.953Z,-1.21
2023-02-27T07:37:38.332Z,-1.17
2023-02-27T07:40:05.178Z,-1.15
2023-02-27T07:42:31.506Z,-1.03
2023-02-27T07:44:59.337Z,-0.95
2023-02-27T07:47:25.696Z,-0.93
2023-02-27T07:49:52.034Z,-0.86
2023-02-27T07:52:18.338Z,-0.80
2023-02-27T07:54:44.688Z,-0.75
2023-02-27T07:57:10.984Z,-0.68
2023-02-27T07:59:37.294Z,-0.61
2023-02-27T08:02:04.959Z,-0.56
2023-02-27T08:04:31.387Z,-0.51
2023-02-27T08:06:57.751Z,-0.46
2023-02-27T08:09:24.114Z,-0.40
2023-02-27T08:11:50.463Z,-0.34
2023-02-27T08:14:16.815Z,-0.28
2023-02-27T08:16:43.125Z,-0.22
2023-02-27T08:19:11.727Z,-0.15
2023-02-27T08:21:38.050Z,-0.12
2023-02-27T08:24:04.453Z,-0.03
2023-02-27T08:26:31.027Z,0.03
2023-02-27T08:28:57.426Z,0.13
2023-02-27T08:31:23.922Z,0.24
2023-02-27T08:33:58.115Z,0.34
2023-02-27T08:36:35.590Z,0.43
2023-02-27T08:39:01.979Z,0.49
2023-02-27T08:41:28.301Z,0.49
2023-02-27T08:43:54.628Z,0.57
2023-02-27T08:46:20.925Z,0.56
2023-02-27T08:48:47.239Z,0.62
2023-02-27T08:51:13.568Z,0.69
2023-02-27T08:53:41.276Z,0.81
2023-02-27T08:56:07.589Z,0.85
2023-02-27T08:58:33.959Z,0.94
2023-02-27T09:01:00.263Z,1.04
2023-02-27T09:03:26.580Z,1.10
2023-02-27T09:05:52.983Z,1.20
2023-02-27T09:08:19.306Z,1.37
2023-02-27T09:10:46.962Z,1.53
2023-02-27T09:13:13.498Z,1.63
2023-02-27T09:15:39.835Z,1.79
2023-02-27T09:18:06.391Z,1.92
2023-02-27T09:20:33.261Z,2.05
2023-02-27T09:22:59.626Z,2.09
2023-02-27T09:25:26.482Z,2.18
2023-02-27T09:27:54.163Z,2.32
2023-02-27T09:30:20.752Z,2.42
2023-02-27T09:32:47.086Z,2.48
2023-02-27T09:35:13.447Z,2.61
2023-02-27T09:37:39.760Z,2.66
2023-02-27T09:40:06.728Z,2.65
2023-02-27T09:42:36.204Z,2.69
2023-02-27T09:45:06.135Z,2.78
2023-02-27T09:47:35.542Z,2.86
2023-02-27T09:50:02.955Z,2.88
2023-02-27T09:52:29.999Z,2.90
2023-02-27T09:54:56.398Z,2.98
2023-02-27T09:57:28.349Z,3.10
2023-02-27T09:59:56.663Z,3.22
2023-02-27T10:02:32.564Z,3.35
2023-02-27T10:05:02.583Z,3.67
2023-02-27T10:07:32.826Z,3.85
2023-02-27T10:10:02.558Z,3.91
2023-02-27T10:12:40.284Z,4.03
2023-02-27T10:15:11.361Z,4.21
2023-02-27T10:17:41.980Z,4.25
2023-02-27T10:20:10.438Z,4.18
2023-02-27T10:22:39.863Z,4.14
2023-02-27T10:25:15.171Z,4.23
2023-02-27T10:27:48.872Z,4.22
2023-02-27T10:30:29.592Z,4.24
2023-02-27T10:33:01.798Z,4.15
2023-02-27T10:35:30.834Z,4.06
2023-02-27T10:37:59.128Z,4.14
2023-02-27T10:40:26.029Z,4.21
2023-02-27T10:42:54.541Z,4.34
2023-02-27T10:45:20.879Z,4.42
2023-02-27T10:47:47.419Z,4.52
2023-02-27T10:50:22.519Z,4.55
2023-02-27T10:52:49.600Z,4.58
2023-02-27T10:55:17.042Z,4.68
2023-02-27T10:57:43.389Z,4.64
2023-02-27T11:00:22.670Z,4.65
2023-02-27T11:02:50.185Z,4.73
2023-02-27T11:05:19.210Z,4.81
2023-02-27T11:07:47.554Z,4.80
2023-02-27T11:10:16.534Z,4.72
2023-02-27T11:12:43.590Z,4.66
2023-02-27T11:15:21.435Z,4.39
2023-02-27T11:17:47.758Z,4.21
2023-02-27T11:20:31.574Z,4.09
2023-02-27T11:23:04.085Z,3.91
2023-02-27T11:25:30.432Z,3.98
2023-02-27T11:28:11.608Z,4.07
2023-02-27T11:30:37.902Z,4.06
2023-02-27T11:33:04.198Z,3.86
2023-02-27T11:35:31.423Z,3.87
2023-02-27T11:37:59.771Z,3.80
2023-02-27T11:40:29.981Z,3.73
2023-02-27T11:42:58.398Z,3.79
2023-02-27T11:46:13.376Z,3.98
2023-02-27T11:48:18.461Z,4.13
2023-02-27T11:50:59.618Z,4.16
2023-02-27T11:53:32.996Z,4.27
2023-02-27T11:56:02.555Z,4.30
2023-02-27T11:58:32.638Z,4.24
2023-02-27T12:01:01.373Z,4.13
2023-02-27T12:03:33.626Z,4.20
2023-02-27T12:06:02.820Z,4.28
2023-02-27T12:08:32.320Z,4.26
2023-02-27T12:11:13.071Z,4.26
2023-02-27T12:13:45.324Z,4.34
2023-02-27T12:16:16.415Z,4.44
2023-02-27T12:18:44.727Z,4.53
2023-02-27T12:21:13.638Z,4.63
2023-02-27T12:23:41.739Z,4.68
2023-02-27T12:26:12.742Z,4.72
2023-02-27T12:28:45.712Z,4.64
2023-02-27T12:31:18.594Z,4.69
2023-02-27T12:33:48.543Z,4.80
2023-02-27T12:36:15.058Z,4.90
2023-02-27T12:38:41.796Z,4.93
2023-02-27T12:41:32.391Z,5.01
2023-02-27T12:44:07.243Z,5.04
2023-02-27T12:46:38.568Z,5.02
2023-02-27T12:49:22.936Z,5.03
2023-02-27T12:51:52.655Z,5.08
2023-02-27T12:54:30.171Z,4.97
2023-02-27T12:57:11.406Z,4.95
2023-02-27T12:59:47.020Z,5.02
2023-02-27T13:02:20.404Z,5.08
2023-02-27T13:04:48.275Z,5.06
2023-02-27T13:07:21.303Z,5.18
2023-02-27T13:09:50.371Z,5.27
2023-02-27T13:12:20.674Z,5.33
2023-02-27T13:14:50.044Z,5.22
2023-02-27T13:17:18.238Z,5.13
2023-02-27T13:19:47.525Z,5.07
2023-02-27T13:22:17.611Z,5.09
2023-02-27T13:24:45.953Z,5.06
2023-02-27T13:27:16.452Z,5.10
2023-02-27T13:29:45.547Z,5.15
2023-02-27T13:32:32.711Z,5.08
2023-02-27T13:35:19.194Z,5.19
2023-02-27T13:37:49.308Z,5.18
2023-02-27T13:40:26.752Z,5.20
2023-02-27T13:42:55.546Z,5.22
2023-02-27T13:45:40.555Z,5.18
2023-02-27T13:48:36.129Z,5.19
2023-02-27T13:51:02.477Z,5.13
2023-02-27T13:53:29.749Z,5.17
2023-02-27T13:55:58.123Z,5.28
2023-02-27T13:58:24.612Z,5.33
2023-02-27T14:01:01.135Z,5.26
2023-02-27T14:03:30.160Z,5.27
2023-02-27T14:05:58.396Z,5.20
2023-02-27T14:08:26.705Z,5.19
2023-02-27T14:10:57.780Z,5.20
2023-02-27T14:13:48.284Z,5.30
2023-02-27T14:16:38.302Z,5.31
2023-02-27T14:19:25.432Z,5.23
2023-02-27T14:21:53.154Z,5.25
2023-02-27T14:24:21.034Z,5.24
2023-02-27T14:26:47.427Z,5.29
2023-02-27T14:29:18.057Z,5.15
2023-02-27T14:31:45.033Z,5.05
2023-02-27T14:34:14.671Z,5.10
2023-02-27T14:36:43.422Z,5.09
2023-02-27T14:39:19.196Z,5.08
2023-02-27T14:41:48.259Z,5.10
2023-02-27T14:44:18.810Z,5.26
2023-02-27T14:46:45.133Z,5.29
2023-02-27T14:49:19.774Z,5.41
2023-02-27T14:51:46.136Z,5.46
2023-02-27T14:54:13.707Z,5.52
2023-02-27T14:56:40.379Z,5.51
2023-02-27T14:59:20.913Z,5.60
2023-02-27T15:01:47.287Z,5.62
2023-02-27T15:04:16.130Z,5.73
2023-02-27T15:06:45.861Z,5.36
2023-02-27T15:09:19.898Z,5.18
2023-02-27T15:11:57.441Z,5.15
2023-02-27T15:14:30.787Z,5.35
2023-02-27T15:16:57.705Z,5.67
2023-02-27T15:19:25.003Z,6.20
2023-02-27T15:21:53.446Z,6.46
2023-02-27T15:24:24.549Z,6.57
2023-02-27T15:26:52.948Z,6.57
2023-02-27T15:29:20.818Z,6.43
2023-02-27T15:31:47.270Z,6.17
2023-02-27T15:34:14.791Z,6.40
2023-02-27T15:36:45.264Z,6.82
2023-02-27T15:39:17.556Z,7.24
2023-02-27T15:41:45.067Z,8.30
2023-02-27T15:44:12.994Z,8.91
2023-02-27T15:46:39.731Z,8.16
2023-02-27T15:49:06.262Z,7.72
2023-02-27T15:51:33.968Z,7.21
2023-02-27T15:54:00.596Z,6.69
2023-02-27T15:56:31.280Z,6.43
2023-02-27T15:59:00.892Z,6.30
2023-02-27T16:01:28.583Z,5.97
2023-02-27T16:03:56.189Z,5.80
2023-02-27T16:06:25.022Z,5.91
2023-02-27T16:08:52.757Z,6.41
2023-02-27T16:11:19.696Z,6.84
2023-02-27T16:13:47.875Z,7.02
2023-02-27T16:16:28.650Z,7.36
2023-02-27T16:18:55.974Z,7.28
2023-02-27T16:21:23.303Z,7.18
2023-02-27T16:23:50.127Z,6.87
2023-02-27T16:26:34.441Z,7.11
2023-02-27T16:29:03.853Z,6.74
2023-02-27T16:31:31.899Z,6.41
2023-02-27T16:33:59.220Z,6.11
2023-02-27T16:36:26.743Z,5.79
2023-02-27T16:38:53.741Z,5.33
2023-02-27T16:41:21.132Z,5.18
2023-02-27T16:43:48.450Z,5.03
2023-02-27T16:46:17.783Z,4.74
2023-02-27T16:48:44.141Z,4.66
2023-02-27T16:51:14.930Z,4.52
2023-02-27T16:53:41.261Z,4.41
2023-02-27T16:56:08.519Z,4.33
2023-02-27T16:58:34.837Z,4.26
2023-02-27T17:01:01.243Z,4.27
2023-02-27T17:03:29.025Z,4.15
2023-02-27T17:05:55.340Z,4.04
2023-02-27T17:08:21.708Z,4.01
2023-02-27T17:10:48.045Z,3.95
2023-02-27T17:13:14.724Z,3.88
2023-02-27T17:15:41.061Z,3.87
2023-02-27T17:18:09.356Z,3.82
2023-02-27T17:20:37.299Z,3.73
2023-02-27T17:23:03.614Z,3.66
2023-02-27T17:25:29.940Z,3.61
2023-02-27T17:27:56.250Z,3.55
2023-02-27T17:30:22.529Z,3.51
2023-02-27T17:32:48.843Z,3.48
2023-02-27T17:35:15.183Z,3.43
2023-02-27T17:37:42.874Z,3.36
2023-02-27T17:40:09.946Z,3.31
2023-02-27T17:42:36.671Z,3.25
2023-02-27T17:45:03.086Z,3.25
2023-02-27T17:47:31.204Z,3.26
2023-02-27T17:49:57.776Z,3.24
2023-02-27T17:52:24.411Z,3.21
2023-02-27T17:54:52.094Z,3.17
2023-02-27T17:57:18.458Z,3.15
2023-02-27T17:59:44.801Z,3.16
2023-02-27T18:02:11.711Z,3.16
2023-02-27T18:04:38.051Z,3.14
2023-02-27T18:07:04.420Z,3.12
2023-02-27T18:09:30.756Z,3.14
2023-02-27T18:11:58.379Z,3.19
2023-02-27T18:14:24.764Z,3.11
2023-02-27T18:16:51.096Z,3.08
2023-02-27T18:19:17.487Z,3.07
2023-02-27T18:21:44.099Z,3.07
2023-02-27T18:24:10.445Z,3.07
2023-02-27T18:26:37.193Z,3.08
2023-02-27T18:29:06.538Z,3.11
2023-02-27T18:31:33.771Z,3.07
2023-02-27T18:34:00.612Z,3.03
2023-02-27T18:36:27.455Z,2.97
2023-02-27T18:38:54.154Z,2.89
2023-02-27T18:41:20.584Z,2.81
2023-02-27T18:43:46.982Z,2.72
2023-02-27T18:46:14.762Z,2.66
2023-02-27T18:48:43.223Z,2.61
2023-02-27T18:51:11.983Z,2.52
2023-02-27T18:53:38.974Z,2.49
2023-02-27T18:56:08.685Z,2.39
2023-02-27T18:58:35.364Z,2.37
2023-02-27T19:01:01.948Z,2.33
2023-02-27T19:03:30.093Z,2.28
2023-02-27T19:05:56.536Z,2.24
2023-02-27T19:08:23.217Z,2.18
2023-02-27T19:10:49.524Z,2.17
2023-02-27T19:13:15.813Z,2.13
2023-02-27T19:15:42.127Z,2.11
2023-02-27T19:18:08.445Z,2.07
2023-02-27T19:20:36.122Z,2.03
2023-02-27T19:23:02.514Z,2.03
2023-02-27T19:25:28.806Z,2.01
2023-02-27T19:27:55.123Z,1.98
2023-02-27T19:30:21.693Z,1.97
2023-02-27T19:32:47.997Z,1.94
2023-02-27T19:35:14.292Z,1.90
2023-02-27T19:37:42.166Z,1.88
2023-02-27T19:40:09.498Z,1.83
2023-02-27T19:42:35.874Z,1.79
2023-02-27T19:45:02.212Z,1.78
2023-02-27T19:47:28.685Z,1.76
2023-02-27T19:49:55.006Z,1.70
2023-02-27T19:52:21.329Z,1.68
2023-02-27T19:54:48.987Z,1.66
2023-02-27T19:57:15.275Z,1.60
2023-02-27T19:59:41.858Z,1.59
2023-02-27T20:02:10.025Z,1.55
2023-02-27T20:04:36.376Z,1.55
2023-02-27T20:07:02.860Z,1.55
2023-02-27T20:09:29.173Z,1.55
2023-02-27T20:11:56.866Z,1.55
2023-02-27T20:14:23.267Z,1.54
2023-02-27T20:16:49.604Z,1.54
2023-02-27T20:19:17.137Z,1.55
2023-02-27T20:21:44.051Z,1.53
2023-02-27T20:24:10.928Z,1.50
2023-02-27T20:26:38.233Z,1.49
2023-02-27T20:29:09.167Z,1.47
2023-02-27T20:31:36.684Z,1.46
2023-02-27T20:34:03.574Z,1.43
2023-02-27T20:36:29.880Z,1.39
2023-02-27T20:38:56.215Z,1.36
2023-02-27T20:41:23.191Z,1.31
2023-02-27T20:43:49.663Z,1.29
2023-02-27T20:46:17.954Z,1.27
2023-02-27T20:48:44.556Z,1.26
2023-02-27T20:51:11.960Z,1.28
2023-02-27T20:53:39.194Z,1.24
2023-02-27T20:56:06.022Z,1.24
2023-02-27T20:58:32.916Z,1.23
2023-02-27T21:00:59.536Z,1.19
2023-02-27T21:03:29.259Z,1.16
2023-02-27T21:05:58.339Z,1.16
2023-02-27T21:08:24.780Z,1.19
2023-02-27T21:10:51.295Z,1.19
2023-02-27T21:13:17.649Z,1.16
2023-02-27T21:15:44.143Z,1.16
2023-02-27T21:18:10.512Z,1.14
2023-02-27T21:20:38.849Z,1.13
2023-02-27T21:23:05.154Z,1.13
2023-02-27T21:25:31.434Z,1.10
2023-02-27T21:27:57.758Z,1.08
2023-02-27T21:30:24.086Z,1.05
2023-02-27T21:32:50.390Z,1.02
2023-02-27T21:35:16.739Z,1.00
2023-02-27T21:37:44.394Z,0.96
2023-02-27T21:40:11.522Z,0.93
2023-02-27T21:42:37.865Z,0.89
2023-02-27T21:45:04.760Z,0.86
2023-02-27T21:47:31.316Z,0.86
2023-02-27T21:49:57.605Z,0.85
2023-02-27T21:52:23.892Z,0.83
2023-02-27T21:54:51.586Z,0.80
2023-02-27T21:57:17.889Z,0.79
2023-02-27T21:59:44.165Z,0.76
2023-02-27T22:02:12.242Z,0.75
2023-02-27T22:04:38.559Z,0.73
2023-02-27T22:07:05.092Z,0.70
2023-02-27T22:09:31.396Z,0.71
2023-02-27T22:11:59.042Z,0.71
2023-02-27T22:14:25.334Z,0.66
2023-02-27T22:16:51.621Z,0.65
2023-02-27T22:19:18.428Z,0.60
2023-02-27T22:21:44.912Z,0.60
2023-02-27T22:24:11.454Z,0.58
2023-02-27T22:26:38.146Z,0.51
2023-02-27T22:29:05.912Z,0.52
2023-02-27T22:31:33.807Z,0.53
2023-02-27T22:34:02.434Z,0.52
2023-02-27T22:36:29.765Z,0.48
2023-02-27T22:38:56.470Z,0.51
2023-02-27T22:41:23.882Z,0.48
2023-02-27T22:43:50.529Z,0.49
2023-02-27T22:46:23.970Z,0.49
2023-02-27T22:48:53.274Z,0.47
2023-02-27T22:51:19.713Z,0.43
2023-02-27T22:53:46.121Z,0.45
2023-02-27T22:56:13.584Z,0.42
2023-02-27T22:58:40.522Z,0.39
2023-02-27T23:01:07.497Z,0.38
2023-02-27T23:03:35.198Z,0.37
2023-02-27T23:06:01.545Z,0.33
2023-02-27T23:08:27.858Z,0.29
2023-02-27T23:10:54.204Z,0.30
2023-02-27T23:13:20.578Z,0.30
2023-02-27T23:15:46.976Z,0.30
2023-02-27T23:18:13.297Z,0.26
2023-02-27T23:20:40.999Z,0.29
2023-02-27T23:23:07.410Z,0.29
2023-02-27T23:25:33.891Z,0.24
2023-02-27T23:28:00.463Z,0.25
2023-02-27T23:30:27.053Z,0.29
2023-02-27T23:32:53.598Z,0.27
2023-02-27T23:35:19.907Z,0.28
2023-02-27T23:37:47.606Z,0.19
2023-02-27T23:40:14.113Z,0.14
2023-02-27T23:42:40.481Z,0.14
2023-02-27T23:45:07.217Z,0.12
2023-02-27T23:47:33.530Z,0.07
2023-02-27T23:49:59.852Z,0.03
2023-02-27T23:52:26.163Z,0.01
2023-02-27T23:54:53.837Z,0.05
2023-02-27T23:57:20.136Z,0.03
2023-02-27T23:59:46.551Z,0.02
